Ismay, Montana
Current Conditions -  °F | °C
As of 9:51 AM on Thursday 23 Oct 2014 (Local Time) from KBHK Reporting Station
Clear Clear  
Wind Chill: 56°   Ceiling: Unl
Heat Index: 56°   Visibility: 10mi
Dew Point: 34°   Wind: 0mph
Humidity: 44%   Direction: NA
Pressure: 29.91"   Gusts: NA
Location:  46.5°N, 104.79°W
Report Text: KBHK 231551Z AUTO 00000KT 10SM CLR 13/01 A2991 RMK AO2 SLP128 T01330011
Loading
Personal Weather Stations






























Interactive Weather Map
Tropical Storm Tracking
New forecast layout! Learn more

10-Day Weather Forecast

Advertisements
Track Severe Weather on mobile